Time;durP1;ratioP1;P1;durP2;ratioP2;P2;SDS_P1;SDS_P2;PMS_P1;PMS_P2;Temp;Humidity;BMP_temperature;BMP_pressure;BME280_temperature;BME280_humidity;BME280_pressure;Samples;Min_cycle;Max_cycle;Signal;HPM_P1;HPM_P2
2023/09/08 00:01:29;;;;;;;;;;;;;;;-140.72;100.00;52396.94;5072302;28;20007;-68
2023/09/08 00:03:55;;;;;;;;;;;;;;;-140.72;100.00;52366.50;5071930;28;19921;-69
2023/09/08 00:06:20;;;;;;;;;;;;;;;-140.72;100.00;52382.75;5068231;28;19928;-69
2023/09/08 00:08:45;;;;;;;;;;;;;;;-140.72;100.00;52374.63;5070062;28;19943;-69
2023/09/08 00:11:10;;;;;;;;;;;;;;;-140.72;100.00;52366.50;5064125;28;20385;-69
2023/09/08 00:13:36;;;;;;;;;;;;;;;-140.72;100.00;52388.84;5063410;28;19928;-69
2023/09/08 00:16:03;;;;;;;;;;;;;;;-140.72;100.00;52372.59;5066261;28;19916;-69
2023/09/08 00:18:28;;;;;;;;;;;;;;;-140.72;100.00;52394.91;5080970;28;19924;-69
2023/09/08 00:20:53;;;;;;;;;;;;;;;-140.72;100.00;52378.69;5071133;28;19917;-69
2023/09/08 00:23:19;;;;;;;;;;;;;;;-140.72;100.00;52396.94;5070224;28;19917;-70
2023/09/08 00:25:44;;;;;;;;;;;;;;;-140.72;100.00;52423.31;5065562;28;19963;-70
2023/09/08 00:28:09;;;;;;;;;;;;;;;-140.72;100.00;52407.09;5062587;28;21716;-69
2023/09/08 00:30:34;;;;;;;;;;;;;;;-140.72;100.00;52411.16;5070376;28;20436;-69
2023/09/08 00:33:00;;;;;;;;;;;;;;;-140.72;100.00;52390.84;5068539;28;19991;-69
2023/09/08 00:35:25;;;;;;;;;;;;;;;-140.72;100.00;52386.81;5060521;28;20361;-69
2023/09/08 00:37:50;;;;;;;;;;;;;;;-140.72;100.00;52398.97;5059420;28;19928;-69
2023/09/08 00:40:15;;;;;;;;;;;;;;;-140.72;100.00;52392.88;5058079;28;19917;-69
2023/09/08 00:42:41;;;;;;;;;;;;;;;-140.72;100.00;52376.66;5062598;28;20276;-69
2023/09/08 00:45:06;;;;;;;;;;;;;;;-140.72;100.00;52386.81;5061944;28;19921;-69
2023/09/08 00:47:31;;;;;;;;;;;;;;;-140.72;100.00;52396.94;5056393;28;20080;-69
2023/09/08 00:49:57;;;;;;;;;;;;;;;-140.72;100.00;52380.72;5068676;28;20012;-69
2023/09/08 00:52:22;;;;;;;;;;;;;;;-140.72;100.00;52392.88;5074297;28;19959;-69
2023/09/08 00:54:47;;;;;;;;;;;;;;;-140.72;100.00;52411.16;5071651;28;19932;-69
2023/09/08 00:57:13;;;;;;;;;;;;;;;-140.72;100.00;52411.16;5076594;28;20073;-69
2023/09/08 00:59:38;;;;;;;;;;;;;;;-140.72;100.00;52382.75;5073374;28;19928;-69
2023/09/08 01:02:03;;;;;;;;;;;;;;;-140.72;100.00;52370.56;5073461;28;20382;-69
2023/09/08 01:04:29;;;;;;;;;;;;;;;-140.72;100.00;52390.84;5089062;28;20015;-69
2023/09/08 01:06:55;;;;;;;;;;;;;;;-140.72;100.00;52388.84;5064903;28;19922;-69
2023/09/08 01:09:20;;;;;;;;;;;;;;;-140.72;100.00;52390.84;5080699;28;19947;-68
2023/09/08 01:11:46;;;;;;;;;;;;;;;-140.72;100.00;52423.31;5074180;28;19962;-69
2023/09/08 01:14:13;;;;;;;;;;;;;;;-140.72;100.00;52403.03;5071799;28;20015;-69
2023/09/08 01:16:42;;;;;;;;;;;;;;;-140.72;100.00;52376.66;5063550;28;19978;-69
2023/09/08 01:19:11;;;;;;;;;;;;;;;-140.72;100.00;52429.41;5069541;28;19927;-68
2023/09/08 01:24:59;;;;;;;;;;;;;;;-140.72;100.00;52396.94;5065729;28;19936;-69
2023/09/08 01:27:25;;;;;;;;;;;;;;;-140.72;100.00;52411.16;5069872;28;19921;-69
2023/09/08 01:29:51;;;;;;;;;;;;;;;-140.72;100.00;52415.22;5063282;28;20000;-68
2023/09/08 01:32:17;;;;;;;;;;;;;;;-140.72;100.00;52425.34;5072574;28;20391;-68
2023/09/08 01:34:42;;;;;;;;;;;;;;;-140.72;100.00;52405.06;5070696;28;19954;-68
2023/09/08 01:37:08;;;;;;;;;;;;;;;-140.72;100.00;52419.28;5069825;28;19925;-68
2023/09/08 01:39:33;;;;;;;;;;;;;;;-140.72;100.00;52413.19;5068234;28;19992;-69
2023/09/08 01:41:58;;;;;;;;;;;;;;;-140.72;100.00;52427.38;5067317;28;19973;-68
2023/09/08 01:44:23;;;;;;;;;;;;;;;-140.72;100.00;52419.28;5063445;28;19916;-69
2023/09/08 01:46:51;;;;;;;;;;;;;;;-140.72;100.00;52451.72;5066659;28;19920;-69
2023/09/08 01:49:16;;;;;;;;;;;;;;;-140.72;100.00;52403.03;5069405;28;19924;-69
2023/09/08 01:51:41;;;;;;;;;;;;;;;-140.72;100.00;52425.34;5062631;28;20431;-67
2023/09/08 01:54:06;;;;;;;;;;;;;;;-140.72;100.00;52425.34;5058801;28;19974;-69
2023/09/08 01:56:31;;;;;;;;;;;;;;;-140.72;100.00;52439.56;5058576;28;20314;-68
2023/09/08 01:58:59;;;;;;;;;;;;;;;-140.72;100.00;52445.66;5062306;28;20314;-69
2023/09/08 02:01:25;;;;;;;;;;;;;;;-140.72;100.00;52411.16;5067804;28;19927;-69
2023/09/08 02:03:50;;;;;;;;;;;;;;;-140.72;100.00;52415.22;5072832;28;19921;-69
2023/09/08 02:06:15;;;;;;;;;;;;;;;-140.72;100.00;52459.84;5068985;28;19982;-69
2023/09/08 02:08:40;;;;;;;;;;;;;;;-140.72;100.00;52449.72;5075121;28;19981;-69
2023/09/08 02:11:05;;;;;;;;;;;;;;;-140.72;100.00;52437.53;5063543;28;19920;-68
2023/09/08 02:13:31;;;;;;;;;;;;;;;-140.72;100.00;52445.66;5067653;28;19921;-68
2023/09/08 02:15:56;;;;;;;;;;;;;;;-140.72;100.00;52435.50;5071518;28;20320;-69
2023/09/08 02:18:21;;;;;;;;;;;;;;;-140.72;100.00;52447.69;5056933;28;19945;-69
2023/09/08 02:20:46;;;;;;;;;;;;;;;-140.72;100.00;52457.81;5061787;28;19927;-69
2023/09/08 02:23:13;;;;;;;;;;;;;;;-140.72;100.00;52463.91;5065375;28;19924;-68
2023/09/08 02:25:38;;;;;;;;;;;;;;;-140.72;100.00;52427.38;5069892;28;20024;-69
2023/09/08 02:28:03;;;;;;;;;;;;;;;-140.72;100.00;52455.78;5066299;28;19952;-69
2023/09/08 02:30:29;;;;;;;;;;;;;;;-140.72;100.00;52435.50;5067783;28;19921;-69
2023/09/08 02:33:02;;;;;;;;;;;;;;;-140.72;100.00;52439.56;5066614;28;20382;-68
2023/09/08 02:35:28;;;;;;;;;;;;;;;-140.72;100.00;52455.78;5079411;28;19920;-68
2023/09/08 02:37:53;;;;;;;;;;;;;;;-140.72;100.00;52435.50;5074745;28;19961;-68
2023/09/08 02:40:20;;;;;;;;;;;;;;;-140.72;100.00;52425.34;5083221;28;20360;-68
2023/09/08 02:42:45;;;;;;;;;;;;;;;-140.72;100.00;52443.63;5080975;28;20025;-68
2023/09/08 02:45:11;;;;;;;;;;;;;;;-140.72;100.00;52459.84;5069110;28;19960;-68
2023/09/08 02:47:36;;;;;;;;;;;;;;;-140.72;100.00;52449.72;5065760;28;19924;-68
2023/09/08 02:50:02;;;;;;;;;;;;;;;-140.72;100.00;52482.16;5070760;28;19967;-69
2023/09/08 02:52:28;;;;;;;;;;;;;;;-140.72;100.00;52484.19;5070454;28;20295;-69
2023/09/08 02:54:53;;;;;;;;;;;;;;;-140.72;100.00;52472.03;5069840;28;19921;-69
2023/09/08 02:57:18;;;;;;;;;;;;;;;-140.72;100.00;52461.88;5081598;28;19927;-73
2023/09/08 02:59:48;;;;;;;;;;;;;;;-140.72;100.00;52461.88;5072063;28;20003;-68
2023/09/08 03:02:13;;;;;;;;;;;;;;;-140.72;100.00;52437.53;5066254;28;19921;-69
2023/09/08 03:04:38;;;;;;;;;;;;;;;-140.72;100.00;52482.16;5064629;28;19928;-69
2023/09/08 03:07:04;;;;;;;;;;;;;;;-140.72;100.00;52441.59;5067029;28;19971;-69
2023/09/08 03:09:29;;;;;;;;;;;;;;;-140.72;100.00;52447.69;5064072;28;19966;-70
2023/09/08 03:11:54;;;;;;;;;;;;;;;-140.72;100.00;52451.72;5059943;28;19925;-69
2023/09/08 03:14:19;;;;;;;;;;;;;;;-140.72;100.00;52484.19;5068110;28;19924;-69
2023/09/08 03:16:45;;;;;;;;;;;;;;;-140.72;100.00;52459.84;5067445;28;19971;-70
2023/09/08 03:19:12;;;;;;;;;;;;;;;-140.72;100.00;52439.56;5077541;28;19935;-70
2023/09/08 03:21:37;;;;;;;;;;;;;;;-140.72;100.00;52482.16;5066099;28;19929;-69
2023/09/08 03:24:03;;;;;;;;;;;;;;;-140.72;100.00;52445.66;5063535;28;20011;-69
2023/09/08 03:26:58;;;;;;;;;;;;;;;-140.72;100.00;52433.47;5070728;28;20050;-69
2023/09/08 03:29:23;;;;;;;;;;;;;;;-140.72;100.00;52488.25;5067112;28;19928;-70
2023/09/08 03:31:48;;;;;;;;;;;;;;;-140.72;100.00;52451.72;5067433;28;19921;-70
2023/09/08 03:34:14;;;;;;;;;;;;;;;-140.72;100.00;52463.91;5054132;28;20418;-70
2023/09/08 03:36:39;;;;;;;;;;;;;;;-140.72;100.00;52480.16;5068426;28;20363;-69
2023/09/08 03:39:04;;;;;;;;;;;;;;;-140.72;100.00;52478.13;5071106;28;19921;-70
2023/09/08 03:41:29;;;;;;;;;;;;;;;-140.72;100.00;52467.97;5061993;28;19964;-70
2023/09/08 03:43:55;;;;;;;;;;;;;;;-140.72;100.00;52451.72;5064501;28;19921;-70
2023/09/08 03:46:20;;;;;;;;;;;;;;;-140.72;100.00;52474.06;5072853;28;19968;-70
2023/09/08 03:48:46;;;;;;;;;;;;;;;-140.72;100.00;52467.97;5068059;28;20290;-69
2023/09/08 03:51:11;;;;;;;;;;;;;;;-140.72;100.00;52520.72;5066756;28;20382;-70
2023/09/08 03:53:36;;;;;;;;;;;;;;;-140.72;100.00;52451.72;5067791;28;20367;-70
2023/09/08 03:56:04;;;;;;;;;;;;;;;-140.72;100.00;52498.41;5072266;28;20083;-70
2023/09/08 03:58:29;;;;;;;;;;;;;;;-140.72;100.00;52472.03;5070209;28;19926;-70
2023/09/08 04:00:54;;;;;;;;;;;;;;;-140.72;100.00;52472.03;5062364;28;19920;-70
2023/09/08 04:03:19;;;;;;;;;;;;;;;-140.72;100.00;52486.22;5070284;28;20290;-70
2023/09/08 04:06:01;;;;;;;;;;;;;;;-140.72;100.00;52480.16;5072396;28;19920;-70
2023/09/08 04:08:27;;;;;;;;;;;;;;;-140.72;100.00;52482.16;5068795;28;20382;-72
2023/09/08 04:10:54;;;;;;;;;;;;;;;-140.72;100.00;52476.09;5079452;28;19916;-71
2023/09/08 04:13:19;;;;;;;;;;;;;;;-140.72;100.00;52480.16;5073184;28;19920;-73
2023/09/08 04:15:44;;;;;;;;;;;;;;;-140.72;100.00;52480.16;5068891;28;19917;-73
2023/09/08 04:18:09;;;;;;;;;;;;;;;-140.72;100.00;52486.22;5059607;28;19970;-73
2023/09/08 04:20:34;;;;;;;;;;;;;;;-140.72;100.00;52484.19;5063904;28;19921;-74
2023/09/08 04:23:00;;;;;;;;;;;;;;;-140.72;100.00;52502.47;5062079;28;19921;-73
2023/09/08 04:25:25;;;;;;;;;;;;;;;-140.72;100.00;52482.16;5075646;28;19923;-72
2023/09/08 04:27:50;;;;;;;;;;;;;;;-140.72;100.00;52480.16;5075031;28;20015;-75
2023/09/08 04:30:15;;;;;;;;;;;;;;;-140.72;100.00;52459.84;5075743;28;19917;-73
2023/09/08 04:32:41;;;;;;;;;;;;;;;-140.72;100.00;52516.66;5073825;28;19920;-74
2023/09/08 04:35:06;;;;;;;;;;;;;;;-140.72;100.00;52514.63;5077025;28;19930;-73
2023/09/08 04:37:31;;;;;;;;;;;;;;;-140.72;100.00;52494.34;5076472;28;19921;-75
2023/09/08 04:39:57;;;;;;;;;;;;;;;-140.72;100.00;52482.16;5068202;28;19921;-73
2023/09/08 04:42:23;;;;;;;;;;;;;;;-140.72;100.00;52467.97;5068887;28;19927;-74
2023/09/08 04:44:48;;;;;;;;;;;;;;;-140.72;100.00;52504.50;5078981;28;20297;-72
2023/09/08 04:47:13;;;;;;;;;;;;;;;-140.72;100.00;52490.28;5073551;28;19960;-73
2023/09/08 04:49:39;;;;;;;;;;;;;;;-140.72;100.00;52492.31;5076487;28;19921;-72
2023/09/08 04:52:04;;;;;;;;;;;;;;;-140.72;100.00;52534.94;5077683;28;19927;-72
2023/09/08 04:54:31;;;;;;;;;;;;;;;-140.72;100.00;52459.84;5073318;28;19924;-72
2023/09/08 04:56:58;;;;;;;;;;;;;;;-140.72;100.00;52502.47;5072554;28;20046;-72
2023/09/08 04:59:23;;;;;;;;;;;;;;;-140.72;100.00;52492.31;5068352;28;19920;-71
2023/09/08 05:01:48;;;;;;;;;;;;;;;-140.72;100.00;52455.78;5076904;28;19917;-72
2023/09/08 05:04:14;;;;;;;;;;;;;;;-140.72;100.00;52536.97;5070289;28;19943;-70
2023/09/08 05:06:39;;;;;;;;;;;;;;;-140.72;100.00;52500.44;5072810;28;19928;-72
2023/09/08 05:09:14;;;;;;;;;;;;;;;-140.72;100.00;52520.72;5069996;28;19924;-71
2023/09/08 05:11:39;;;;;;;;;;;;;;;-140.72;100.00;52528.84;5068610;28;19921;-72
2023/09/08 05:14:05;;;;;;;;;;;;;;;-140.72;100.00;52488.25;5072737;28;19920;-72
2023/09/08 05:16:49;;;;;;;;;;;;;;;-140.72;100.00;52488.25;5072493;28;19916;-73
2023/09/08 05:19:14;;;;;;;;;;;;;;;-140.72;100.00;52520.72;5076668;28;20372;-70
2023/09/08 05:21:40;;;;;;;;;;;;;;;-140.72;100.00;52484.19;5073599;28;19916;-70
2023/09/08 05:24:05;;;;;;;;;;;;;;;-140.72;100.00;52504.50;5070992;28;19946;-73
2023/09/08 05:26:30;;;;;;;;;;;;;;;-140.72;100.00;52506.53;5075360;28;19927;-70
2023/09/08 05:28:56;;;;;;;;;;;;;;;-140.72;100.00;52524.78;5063409;28;20303;-69
2023/09/08 05:31:21;;;;;;;;;;;;;;;-140.72;100.00;52500.44;5069052;28;20367;-69
2023/09/08 05:33:46;;;;;;;;;;;;;;;-140.72;100.00;52480.16;5070353;28;19927;-70
2023/09/08 05:36:11;;;;;;;;;;;;;;;-140.72;100.00;52524.78;5071511;28;20014;-69
2023/09/08 05:38:38;;;;;;;;;;;;;;;-140.72;100.00;52526.81;5070445;28;19946;-76
2023/09/08 05:41:03;;;;;;;;;;;;;;;-140.72;100.00;52476.09;5072473;28;20007;-75
2023/09/08 05:43:29;;;;;;;;;;;;;;;-140.72;100.00;52484.19;5074885;28;19962;-74
2023/09/08 05:45:55;;;;;;;;;;;;;;;-140.72;100.00;52518.69;5074745;28;19934;-76
2023/09/08 05:48:20;;;;;;;;;;;;;;;-140.72;100.00;52492.31;5081315;28;20007;-76
2023/09/08 05:50:45;;;;;;;;;;;;;;;-140.72;100.00;52522.75;5068599;28;20021;-76
2023/09/08 05:53:10;;;;;;;;;;;;;;;-140.72;100.00;52496.38;5066707;28;19954;-77
2023/09/08 05:55:36;;;;;;;;;;;;;;;-140.72;100.00;52496.38;5080476;28;20381;-78
2023/09/08 05:58:01;;;;;;;;;;;;;;;-140.72;100.00;52498.41;5069886;28;19917;-79
2023/09/08 06:00:26;;;;;;;;;;;;;;;-140.72;100.00;52480.16;5079883;28;19921;-78
2023/09/08 06:03:05;;;;;;;;;;;;;;;-140.72;100.00;52492.31;5076809;28;20002;-72
2023/09/08 06:05:31;;;;;;;;;;;;;;;-140.72;100.00;52463.91;5066860;28;19920;-71
2023/09/08 06:07:57;;;;;;;;;;;;;;;-140.72;100.00;52492.31;5068086;28;19920;-72
2023/09/08 06:10:30;;;;;;;;;;;;;;;-140.72;100.00;52506.53;5069820;28;19966;-69
2023/09/08 06:12:56;;;;;;;;;;;;;;;-140.72;100.00;52482.16;5064072;28;19923;-69
2023/09/08 06:15:32;;;;;;;;;;;;;;;-140.72;100.00;52472.03;5068600;28;20012;-70
2023/09/08 06:17:59;;;;;;;;;;;;;;;-140.72;100.00;52504.50;5058895;28;19924;-69
2023/09/08 06:20:24;;;;;;;;;;;;;;;-140.72;100.00;52461.88;5075695;28;19920;-70
2023/09/08 06:22:57;;;;;;;;;;;;;;;-140.72;100.00;52486.22;5069217;28;20004;-69
2023/09/08 06:25:22;;;;;;;;;;;;;;;-140.72;100.00;52500.44;5063185;28;19964;-69
2023/09/08 06:27:48;;;;;;;;;;;;;;;-140.72;100.00;52482.16;5071138;28;19920;-69
2023/09/08 06:30:18;;;;;;;;;;;;;;;-140.72;100.00;52470.00;5078385;28;19921;-69
2023/09/08 06:32:43;;;;;;;;;;;;;;;-140.72;100.00;52459.84;5086314;28;20352;-69
2023/09/08 06:35:08;;;;;;;;;;;;;;;-140.72;100.00;52476.09;5073492;28;19956;-69
2023/09/08 06:37:37;;;;;;;;;;;;;;;-140.72;100.00;52463.91;5073016;28;19921;-67
2023/09/08 06:40:04;;;;;;;;;;;;;;;-140.72;100.00;52459.84;5066988;28;20271;-71
2023/09/08 06:42:29;;;;;;;;;;;;;;;-140.72;100.00;52461.88;5071237;28;19920;-70
2023/09/08 06:44:54;;;;;;;;;;;;;;;-140.72;100.00;52488.25;5076293;28;19923;-71
2023/09/08 06:47:20;;;;;;;;;;;;;;;-140.72;100.00;52449.72;5072561;28;19986;-68
2023/09/08 06:49:45;;;;;;;;;;;;;;;-140.72;100.00;52474.06;5069384;28;19943;-73
2023/09/08 06:52:10;;;;;;;;;;;;;;;-140.72;100.00;52463.91;5069654;28;20401;-67
2023/09/08 06:54:35;;;;;;;;;;;;;;;-140.72;100.00;52470.00;5066829;28;19916;-68
2023/09/08 06:57:02;;;;;;;;;;;;;;;-140.72;100.00;52461.88;5057609;28;19960;-68
2023/09/08 06:59:27;;;;;;;;;;;;;;;-140.72;100.00;52431.44;5070870;28;19917;-68
2023/09/08 07:01:52;;;;;;;;;;;;;;;-140.72;100.00;52443.63;5066740;28;19917;-68
2023/09/08 07:04:17;;;;;;;;;;;;;;;-140.72;100.00;52463.91;5061746;28;19927;-68
2023/09/08 07:06:44;;;;;;;;;;;;;;;-140.72;100.00;52480.16;5071398;28;20020;-68
2023/09/08 07:09:09;;;;;;;;;;;;;;;-140.72;100.00;52433.47;5069751;28;20004;-68
2023/09/08 07:11:35;;;;;;;;;;;;;;;-140.72;100.00;52459.84;5072000;28;19928;-68
2023/09/08 07:14:00;;;;;;;;;;;;;;;-140.72;100.00;52476.09;5053756;28;19917;-68
2023/09/08 07:16:25;;;;;;;;;;;;;;;-140.72;100.00;52435.50;5069408;28;20377;-69
2023/09/08 07:18:50;;;;;;;;;;;;;;;-140.72;100.00;52455.78;5073153;28;20314;-69
2023/09/08 07:21:16;;;;;;;;;;;;;;;-140.72;100.00;52423.31;5061976;28;19967;-68
2023/09/08 07:23:41;;;;;;;;;;;;;;;-140.72;100.00;52419.28;5060204;28;19917;-68
2023/09/08 07:26:06;;;;;;;;;;;;;;;-140.72;100.00;52421.28;5070779;28;19916;-68
2023/09/08 07:28:31;;;;;;;;;;;;;;;-140.72;100.00;52435.50;5072684;28;20002;-68
2023/09/08 07:31:00;;;;;;;;;;;;;;;-140.72;100.00;52425.34;5091258;28;19942;-68
2023/09/08 07:33:26;;;;;;;;;;;;;;;-140.72;100.00;52411.16;5087350;28;19916;-68
2023/09/08 07:35:51;;;;;;;;;;;;;;;-140.72;100.00;52409.13;5061214;28;19921;-68
2023/09/08 07:38:16;;;;;;;;;;;;;;;-140.72;100.00;52390.84;5091971;28;20366;-68
2023/09/08 07:40:41;;;;;;;;;;;;;;;-140.72;100.00;52411.16;5085809;28;20011;-68
2023/09/08 07:43:07;;;;;;;;;;;;;;;-140.72;100.00;52394.91;5072006;28;19917;-68
2023/09/08 07:45:34;;;;;;;;;;;;;;;-140.72;100.00;52388.84;5072256;28;19920;-68
2023/09/08 07:47:59;;;;;;;;;;;;;;;-140.72;100.00;52390.84;5067527;28;20328;-68
2023/09/08 07:50:26;;;;;;;;;;;;;;;-140.72;100.00;52390.84;5059887;28;20000;-68
2023/09/08 07:52:52;;;;;;;;;;;;;;;-140.72;100.00;52390.84;5066982;28;19924;-68
2023/09/08 07:55:17;;;;;;;;;;;;;;;-140.72;100.00;52370.56;5070389;28;19920;-68
2023/09/08 07:57:43;;;;;;;;;;;;;;;-140.72;100.00;52403.03;5064544;28;20572;-68
2023/09/08 08:00:10;;;;;;;;;;;;;;;-140.72;100.00;52374.63;5070155;28;19924;-68
2023/09/08 08:02:36;;;;;;;;;;;;;;;-140.72;100.00;52390.84;5075493;28;20001;-69
2023/09/08 08:05:01;;;;;;;;;;;;;;;-140.72;100.00;52374.63;5067711;28;20385;-68
2023/09/08 08:07:27;;;;;;;;;;;;;;;-140.72;100.00;52376.66;5072495;28;19925;-68
2023/09/08 08:10:00;;;;;;;;;;;;;;;-140.72;100.00;52378.69;5073212;28;19966;-68
2023/09/08 08:12:25;;;;;;;;;;;;;;;-140.72;100.00;52350.28;5075408;28;20023;-70
2023/09/08 08:14:53;;;;;;;;;;;;;;;-140.72;100.00;52356.38;5075449;28;20134;-68
2023/09/08 08:17:19;;;;;;;;;;;;;;;-140.72;100.00;52330.00;5067476;28;19925;-68
2023/09/08 08:19:44;;;;;;;;;;;;;;;-140.72;100.00;52352.31;5072717;28;20294;-68
2023/09/08 08:22:10;;;;;;;;;;;;;;;-140.72;100.00;52362.44;5078997;28;19924;-68
2023/09/08 08:24:35;;;;;;;;;;;;;;;-140.72;100.00;52370.56;5074112;28;19921;-68
2023/09/08 08:27:01;;;;;;;;;;;;;;;-140.72;100.00;52348.25;5076379;28;19947;-68
2023/09/08 08:29:27;;;;;;;;;;;;;;;-140.72;100.00;52348.25;5074616;28;19999;-68
2023/09/08 08:31:52;;;;;;;;;;;;;;;-140.72;100.00;52338.09;5087203;28;19962;-68
2023/09/08 08:34:17;;;;;;;;;;;;;;;-140.72;100.00;52279.25;5074614;28;20414;-68
2023/09/08 08:36:42;;;;;;;;;;;;;;;-140.72;100.00;52291.44;5069032;28;19920;-68
2023/09/08 08:39:07;;;;;;;;;;;;;;;-140.72;100.00;52301.59;5067195;28;20358;-68
2023/09/08 08:41:37;;;;;;;;;;;;;;;-140.72;100.00;52334.03;5067721;28;19920;-69
2023/09/08 08:44:03;;;;;;;;;;;;;;;-140.72;100.00;52283.31;5066500;28;19916;-68
2023/09/08 08:46:28;;;;;;;;;;;;;;;-140.72;100.00;52285.34;5074820;28;20062;-68
2023/09/08 08:48:54;;;;;;;;;;;;;;;-140.72;100.00;52303.59;5082536;28;19969;-68
2023/09/08 08:51:22;;;;;;;;;;;;;;;-140.72;100.00;52279.25;5071846;28;19917;-67
2023/09/08 08:53:48;;;;;;;;;;;;;;;-140.72;100.00;52254.91;5064962;28;20005;-68
2023/09/08 08:56:13;;;;;;;;;;;;;;;-140.72;100.00;52248.81;5063792;28;19916;-69
2023/09/08 08:58:39;;;;;;;;;;;;;;;-140.72;100.00;52240.72;5071866;28;19954;-68
2023/09/08 09:01:05;;;;;;;;;;;;;;;-140.72;100.00;52198.09;5059227;28;19958;-67
2023/09/08 09:03:40;;;;;;;;;;;;;;;-140.72;100.00;52169.69;5069726;28;20389;-68
2023/09/08 09:06:05;;;;;;;;;;;;;;;-140.72;93.14;52131.16;5072735;28;20833;-68
2023/09/08 09:08:32;;;;;;;;;;;;;;;-140.72;35.48;52086.50;5075868;28;19951;-67
2023/09/08 09:10:57;;;;;;;;;;;;;;;-140.72;0.00;52080.41;5063003;28;20023;-68
2023/09/08 09:13:23;;;;;;;;;;;;;;;-140.72;0.00;52070.28;5072229;28;19979;-68
2023/09/08 09:15:49;;;;;;;;;;;;;;;-140.72;0.00;52049.97;5072679;28;19925;-68
2023/09/08 09:18:14;;;;;;;;;;;;;;;-140.72;0.00;52023.59;5069352;28;19920;-68
2023/09/08 09:20:42;;;;;;;;;;;;;;;-140.72;0.00;52015.50;5067779;28;20040;-72
2023/09/08 09:23:07;;;;;;;;;;;;;;;-140.72;0.00;52007.38;5069018;28;20335;-69
2023/09/08 09:25:33;;;;;;;;;;;;;;;-140.72;0.00;52011.44;5076107;28;19963;-72
2023/09/08 09:27:59;;;;;;;;;;;;;;;-140.72;0.00;52035.78;5066840;28;19920;-71
2023/09/08 09:30:25;;;;;;;;;;;;;;;-140.72;0.00;51974.91;5062899;28;19920;-70
2023/09/08 09:33:03;;;;;;;;;;;;;;;-140.72;0.00;52001.28;5074011;28;19987;-70
2023/09/08 09:35:47;;;;;;;;;;;;;;;-140.72;0.00;52011.44;5066557;28;19920;-70
2023/09/08 09:38:13;;;;;;;;;;;;;;;-140.72;0.00;51966.81;5078245;28;19927;-70
2023/09/08 09:40:39;;;;;;;;;;;;;;;-140.72;0.00;51932.31;5075318;28;20293;-70
2023/09/08 09:43:04;;;;;;;;;;;;;;;-140.72;0.00;51912.03;5065501;28;20395;-71
2023/09/08 09:45:30;;;;;;;;;;;;;;;-140.72;0.00;51944.47;5066462;28;19970;-71
2023/09/08 09:47:57;;;;;;;;;;;;;;;-140.72;0.00;51928.25;5070442;28;19921;-71
2023/09/08 09:50:33;;;;;;;;;;;;;;;-140.72;0.00;51903.91;5062394;28;19917;-72
2023/09/08 09:53:00;;;;;;;;;;;;;;;-140.72;0.00;51903.91;5063391;28;20335;-72
2023/09/08 09:55:28;;;;;;;;;;;;;;;-140.72;0.00;51895.78;5060216;28;19974;-70
2023/09/08 09:58:03;;;;;;;;;;;;;;;-140.72;0.00;51881.59;5061749;28;19921;-71
2023/09/08 10:00:29;;;;;;;;;;;;;;;-140.72;0.00;51912.03;5073097;28;20067;-78
2023/09/08 10:02:55;;;;;;;;;;;;;;;-140.72;0.00;51883.63;5075660;28;19923;-71
2023/09/08 10:05:20;;;;;;;;;;;;;;;-140.72;0.00;51881.59;5065688;28;19928;-70
2023/09/08 10:07:49;;;;;;;;;;;;;;;-140.72;0.00;51865.34;5072812;28;19921;-73
2023/09/08 10:10:15;;;;;;;;;;;;;;;-140.72;0.00;51851.16;5062561;28;20023;-71
2023/09/08 10:12:42;;;;;;;;;;;;;;;-140.72;0.00;51838.97;5066467;28;19967;-71
2023/09/08 10:15:10;;;;;;;;;;;;;;;-140.72;0.00;51871.44;5059005;28;19923;-73
2023/09/08 10:17:36;;;;;;;;;;;;;;;-140.72;0.00;51910.00;5067013;28;19925;-73
2023/09/08 10:20:08;;;;;;;;;;;;;;;-140.72;0.00;51885.66;5064699;28;19991;-71
2023/09/08 10:22:47;;;;;;;;;;;;;;;-140.72;0.00;51824.78;5069197;28;20334;-70
2023/09/08 10:25:14;;;;;;;;;;;;;;;-140.72;0.00;51794.34;5067718;28;19927;-72
2023/09/08 10:27:41;;;;;;;;;;;;;;;-140.72;0.00;51804.50;5070285;28;19921;-71
2023/09/08 10:30:07;;;;;;;;;;;;;;;-140.72;0.00;51723.34;5068850;28;19924;-71
2023/09/08 10:32:35;;;;;;;;;;;;;;;-140.72;0.00;51753.78;5072950;28;19920;-71
2023/09/08 10:35:03;;;;;;;;;;;;;;;-140.72;0.00;51719.28;5073194;28;19966;-71
2023/09/08 10:37:32;;;;;;;;;;;;;;;-140.72;0.00;51774.06;5067700;28;19967;-71
2023/09/08 10:40:17;;;;;;;;;;;;;;;-140.72;0.00;51808.53;5066272;28;19937;-71
2023/09/08 10:42:43;;;;;;;;;;;;;;;-140.72;0.00;51780.16;5057647;28;19924;-70
2023/09/08 10:45:15;;;;;;;;;;;;;;;-140.72;0.00;51699.00;5068114;28;19977;-70
2023/09/08 10:47:41;;;;;;;;;;;;;;;-140.72;0.00;51668.56;5068585;28;19924;-72
2023/09/08 10:50:08;;;;;;;;;;;;;;;-140.72;0.00;51678.72;5070236;28;19981;-71
2023/09/08 10:52:35;;;;;;;;;;;;;;;-140.72;0.00;51636.09;5068193;28;19940;-77
2023/09/08 10:55:01;;;;;;;;;;;;;;;-140.72;0.00;51656.38;5072602;28;20038;-70
2023/09/08 10:57:27;;;;;;;;;;;;;;;-140.72;0.00;51583.34;5063493;28;19956;-70
2023/09/08 10:59:56;;;;;;;;;;;;;;;-140.72;0.00;51571.19;5063471;28;20025;-70
2023/09/08 11:02:45;;;;;;;;;;;;;;;-140.72;0.00;51607.69;5071115;28;20366;-72
2023/09/08 11:05:15;;;;;;;;;;;;;;;-140.72;0.00;51619.88;5077183;28;19928;-71
2023/09/08 11:07:43;;;;;;;;;;;;;;;-140.72;0.00;51607.69;5068750;28;19935;-70
2023/09/08 11:10:09;;;;;;;;;;;;;;;-140.72;0.00;51595.53;5062910;28;20015;-71
2023/09/08 11:12:35;;;;;;;;;;;;;;;-140.72;0.00;51534.66;5062340;28;19932;-75
2023/09/08 11:15:05;;;;;;;;;;;;;;;-140.72;0.00;51526.56;5064544;28;21354;-71
2023/09/08 11:17:34;;;;;;;;;;;;;;;-140.72;0.00;51498.16;5070887;28;19927;-71
2023/09/08 11:19:59;;;;;;;;;;;;;;;-140.72;0.00;51577.28;5071403;28;19925;-71
2023/09/08 11:22:25;;;;;;;;;;;;;;;-140.72;0.00;51559.00;5071803;28;19928;-70
2023/09/08 11:25:12;;;;;;;;;;;;;;;-140.72;0.00;51508.28;5062623;28;19920;-71
2023/09/08 11:27:41;;;;;;;;;;;;;;;-140.72;0.00;51548.88;5063972;28;19921;-70
2023/09/08 11:30:07;;;;;;;;;;;;;;;-140.72;0.00;51534.66;5066096;28;20061;-71
2023/09/08 11:32:33;;;;;;;;;;;;;;;-140.72;0.00;51461.63;5065031;28;19935;-71
2023/09/08 11:35:09;;;;;;;;;;;;;;;-140.72;0.00;51396.72;5070724;28;19925;-70
2023/09/08 11:37:38;;;;;;;;;;;;;;;-140.72;0.00;51477.88;5070169;28;19920;-71
2023/09/08 11:40:09;;;;;;;;;;;;;;;-140.72;0.00;51453.53;5069002;28;19959;-68
2023/09/08 11:42:34;;;;;;;;;;;;;;;-140.72;0.00;51475.84;5076613;28;19926;-68
2023/09/08 11:45:00;;;;;;;;;;;;;;;-140.72;0.00;51526.56;5069408;28;20015;-69
2023/09/08 11:47:25;;;;;;;;;;;;;;;-140.72;0.00;51475.84;5069578;28;19928;-72
2023/09/08 11:49:52;;;;;;;;;;;;;;;-140.72;0.00;51419.03;5071746;28;20031;-69
2023/09/08 11:52:17;;;;;;;;;;;;;;;-140.72;0.00;51457.56;5071726;28;19971;-69
2023/09/08 11:54:43;;;;;;;;;;;;;;;-140.72;0.00;51427.16;5070273;28;19956;-69
2023/09/08 11:57:08;;;;;;;;;;;;;;;-140.72;0.00;51410.91;5068250;28;19927;-69
2023/09/08 11:59:34;;;;;;;;;;;;;;;-140.72;0.00;51376.44;5065733;28;19921;-69
2023/09/08 12:02:00;;;;;;;;;;;;;;;-140.72;0.00;51431.19;5075722;28;19924;-68
2023/09/08 12:04:25;;;;;;;;;;;;;;;-140.72;0.00;51421.06;5067492;28;19971;-69
2023/09/08 12:06:55;;;;;;;;;;;;;;;-140.72;0.00;51388.59;5070621;28;19931;-68
2023/09/08 12:09:21;;;;;;;;;;;;;;;-140.72;0.00;51449.47;5066063;28;19928;-69
2023/09/08 12:11:46;;;;;;;;;;;;;;;-140.72;0.00;51447.44;5066910;28;19920;-69
2023/09/08 12:14:12;;;;;;;;;;;;;;;-140.72;0.00;51396.72;5067979;28;19916;-68
2023/09/08 12:16:38;;;;;;;;;;;;;;;-140.72;0.00;51380.50;5063990;28;19920;-69
2023/09/08 12:19:03;;;;;;;;;;;;;;;-140.72;0.00;51372.38;5072298;28;19920;-70
2023/09/08 12:21:28;;;;;;;;;;;;;;;-140.72;0.00;51429.19;5069324;28;20293;-68
2023/09/08 12:23:56;;;;;;;;;;;;;;;-140.72;0.00;51421.06;5064902;28;19933;-69